Time;durP1;ratioP1;P1;durP2;ratioP2;P2;SDS_P1;SDS_P2;PMS_P1;PMS_P2;Temp;Humidity;BMP_temperature;BMP_pressure;BME280_temperature;BME280_humidity;BME280_pressure;Samples;Min_cycle;Max_cycle;Signal;HPM_P1;HPM_P2
2023/10/13 00:01:52;;;;;;;89.72;24.42;;;13.30;99.90;;;;;;5051928;28;20045;-85
2023/10/13 00:04:22;;;;;;;142.67;27.87;;;13.30;99.90;;;;;;5052222;28;20040;-86
2023/10/13 00:06:48;;;;;;;77.82;24.25;;;13.40;99.90;;;;;;5052142;28;20295;-86
2023/10/13 00:09:14;;;;;;;114.78;27.33;;;13.30;99.90;;;;;;5051661;28;20044;-85
2023/10/13 00:11:47;;;;;;;75.18;23.80;;;13.40;99.90;;;;;;5052012;28;20060;-86
2023/10/13 00:14:16;;;;;;;93.22;26.10;;;13.40;99.90;;;;;;5051797;28;20049;-86
2023/10/13 00:17:03;;;;;;;87.82;26.20;;;13.50;99.90;;;;;;5051771;28;20180;-85
2023/10/13 00:19:45;;;;;;;112.32;28.58;;;13.50;99.90;;;;;;5051570;28;20056;-85
2023/10/13 00:22:12;;;;;;;128.38;29.25;;;13.60;99.90;;;;;;5051960;28;20060;-85
2023/10/13 00:24:42;;;;;;;98.47;30.20;;;13.60;99.90;;;;;;5053027;28;20041;-85
2023/10/13 00:32:45;;;;;;;86.85;26.73;;;13.60;99.90;;;;;;5052735;28;20119;-85
2023/10/13 00:37:57;;;;;;;80.43;27.25;;;13.70;99.90;;;;;;5020832;28;20143;-86
2023/10/13 00:44:03;;;;;;;98.63;30.23;;;13.70;99.90;;;;;;5052397;28;20135;-86
2023/10/13 00:46:18;;;;;;;118.72;32.10;;;13.70;99.90;;;;;;5035026;28;20093;-85
2023/10/13 00:48:54;;;;;;;106.72;32.65;;;13.90;99.90;;;;;;5052830;28;20103;-85
2023/10/13 00:51:41;;;;;;;98.30;31.80;;;13.80;99.90;;;;;;5056374;28;20048;-85
2023/10/13 00:54:07;;;;;;;118.70;33.15;;;13.80;99.90;;;;;;5054914;28;20063;-86
2023/10/13 00:56:34;;;;;;;110.20;32.33;;;13.80;99.90;;;;;;5056212;28;20037;-86
2023/10/13 00:59:03;;;;;;;110.28;33.13;;;13.90;99.90;;;;;;5056149;28;20044;-86
2023/10/13 01:01:32;;;;;;;105.03;33.03;;;13.90;99.90;;;;;;5055999;28;20044;-86
2023/10/13 01:03:59;;;;;;;127.75;34.10;;;14.00;99.90;;;;;;5054947;28;20102;-86
2023/10/13 01:06:29;;;;;;;100.30;31.48;;;14.00;99.90;;;;;;5055051;28;20044;-86
2023/10/13 01:09:00;;;;;;;118.30;34.28;;;14.00;99.90;;;;;;5054759;28;20037;-85
2023/10/13 01:11:29;;;;;;;128.52;33.75;;;14.00;99.90;;;;;;5054688;28;20080;-86
2023/10/13 01:13:56;;;;;;;118.55;32.05;;;14.00;99.90;;;;;;5055932;28;20041;-86
2023/10/13 01:16:26;;;;;;;104.72;32.42;;;14.10;99.90;;;;;;5054439;28;20049;-86
2023/10/13 01:18:53;;;;;;;96.57;31.35;;;14.10;99.90;;;;;;5054610;28;20068;-86
2023/10/13 01:21:27;;;;;;;101.75;32.92;;;14.10;99.90;;;;;;5054501;28;20094;-86
2023/10/13 01:23:53;;;;;;;99.85;32.65;;;14.00;99.90;;;;;;5054729;28;20044;-87
2023/10/13 01:26:26;;;;;;;127.90;35.40;;;14.10;99.90;;;;;;5054207;28;20447;-87
2023/10/13 01:28:57;;;;;;;110.68;33.88;;;14.30;99.90;;;;;;5054358;28;20496;-87
2023/10/13 01:31:29;;;;;;;114.30;34.88;;;14.20;99.90;;;;;;5054592;28;20052;-86
2023/10/13 01:33:58;;;;;;;131.82;35.88;;;14.20;99.90;;;;;;5054391;28;20107;-85
2023/10/13 01:36:26;;;;;;;108.55;32.58;;;14.30;99.90;;;;;;5054268;28;20048;-86
2023/10/13 01:38:53;;;;;;;116.00;33.35;;;14.30;99.90;;;;;;5054028;28;20128;-86
2023/10/13 01:41:21;;;;;;;99.95;31.08;;;14.30;99.90;;;;;;5053838;28;20488;-86
2023/10/13 01:43:48;;;;;;;102.57;32.42;;;14.40;99.90;;;;;;5054829;28;20052;-86
2023/10/13 01:46:14;;;;;;;108.85;31.92;;;14.60;99.90;;;;;;5054292;28;20445;-86
2023/10/13 01:48:41;;;;;;;101.53;30.33;;;14.70;99.90;;;;;;5054257;28;20124;-86
2023/10/13 01:51:11;;;;;;;96.22;29.75;;;14.60;99.90;;;;;;5053771;28;20469;-85
2023/10/13 01:53:37;;;;;;;100.18;32.30;;;14.60;99.90;;;;;;5053979;28;20087;-86
2023/10/13 01:56:09;;;;;;;95.35;29.45;;;14.70;99.90;;;;;;5055108;28;20059;-85
2023/10/13 01:58:42;;;;;;;91.43;29.75;;;14.90;99.90;;;;;;5055093;28;20041;-86
2023/10/13 02:01:11;;;;;;;85.93;29.63;;;14.90;99.90;;;;;;5053263;28;20045;-85
2023/10/13 02:03:45;;;;;;;91.85;29.40;;;14.80;99.90;;;;;;5054943;28;20033;-86
2023/10/13 02:06:16;;;;;;;95.25;30.20;;;14.90;99.90;;;;;;5053822;28;20396;-86
2023/10/13 02:08:43;;;;;;;86.38;29.17;;;15.00;99.90;;;;;;5054187;28;20101;-86
2023/10/13 02:11:11;;;;;;;85.45;29.65;;;15.00;99.90;;;;;;5054712;28;20045;-84
2023/10/13 02:13:48;;;;;;;77.78;27.40;;;15.00;99.90;;;;;;5053510;28;20405;-86
2023/10/13 02:16:18;;;;;;;81.65;28.23;;;15.10;99.90;;;;;;5053601;28;20102;-86
2023/10/13 02:18:44;;;;;;;75.40;26.80;;;15.10;99.90;;;;;;5053313;28;20124;-85
2023/10/13 02:21:13;;;;;;;64.20;23.67;;;15.10;99.90;;;;;;5053108;28;20091;-85
2023/10/13 02:23:46;;;;;;;61.10;23.85;;;15.20;99.90;;;;;;5053332;28;20044;-85
2023/10/13 02:26:27;;;;;;;66.35;26.05;;;15.10;99.90;;;;;;5053528;28;20094;-85
2023/10/13 02:28:56;;;;;;;61.33;24.17;;;15.30;99.90;;;;;;5053288;28;20075;-86
2023/10/13 02:31:24;;;;;;;64.05;24.80;;;15.20;99.90;;;;;;5053105;28;20049;-86
2023/10/13 02:33:50;;;;;;;51.30;22.15;;;15.20;99.90;;;;;;5053078;28;20493;-85
2023/10/13 02:36:23;;;;;;;48.17;19.55;;;15.20;99.90;;;;;;5054438;28;20045;-85
2023/10/13 02:38:52;;;;;;;41.30;18.70;;;15.40;99.90;;;;;;5052542;28;20049;-85
2023/10/13 02:41:25;;;;;;;40.70;16.95;;;15.30;99.90;;;;;;5054180;28;20075;-86
2023/10/13 02:43:52;;;;;;;43.25;16.48;;;15.40;99.90;;;;;;5052938;28;20469;-85
2023/10/13 02:46:21;;;;;;;31.45;14.25;;;15.50;99.90;;;;;;5053142;28;20060;-85
2023/10/13 02:48:53;;;;;;;31.92;13.57;;;15.50;99.90;;;;;;5052717;28;20052;-85
2023/10/13 02:51:35;;;;;;;29.17;12.98;;;15.50;99.90;;;;;;5053053;28;20374;-86
2023/10/13 02:54:09;;;;;;;29.55;13.27;;;15.50;99.90;;;;;;5052939;28;20504;-86
2023/10/13 02:56:36;;;;;;;26.70;12.05;;;15.50;99.90;;;;;;5052945;28;20041;-86
2023/10/13 02:59:05;;;;;;;24.15;10.95;;;15.50;99.90;;;;;;5053873;28;20112;-85
2023/10/13 03:01:34;;;;;;;26.90;11.90;;;15.50;99.90;;;;;;5052969;28;20191;-83
2023/10/13 03:04:05;;;;;;;30.02;12.45;;;15.50;99.90;;;;;;5053937;28;20044;-85
2023/10/13 03:06:34;;;;;;;26.95;11.98;;;15.60;99.90;;;;;;5052472;28;20473;-85
2023/10/13 03:09:18;;;;;;;28.85;13.20;;;15.40;99.90;;;;;;5052763;28;20128;-86
2023/10/13 03:11:50;;;;;;;27.95;13.20;;;15.40;99.90;;;;;;5052607;28;20068;-85
2023/10/13 03:14:32;;;;;;;31.27;13.52;;;15.50;99.90;;;;;;5052696;28;20048;-86
2023/10/13 03:17:05;;;;;;;34.63;14.23;;;15.60;99.90;;;;;;5052615;28;20095;-85
2023/10/13 03:19:34;;;;;;;28.00;13.65;;;15.60;99.90;;;;;;5052253;28;20053;-86
2023/10/13 03:22:10;;;;;;;30.52;14.50;;;15.50;99.90;;;;;;5052591;28;20507;-86
2023/10/13 03:24:46;;;;;;;33.53;14.10;;;15.40;99.90;;;;;;5052576;28;20751;-86
2023/10/13 03:27:23;;;;;;;34.85;13.90;;;15.50;99.90;;;;;;5052527;28;20053;-86
2023/10/13 03:29:54;;;;;;;30.52;14.18;;;15.40;99.90;;;;;;5052199;28;20419;-86
2023/10/13 03:32:20;;;;;;;27.83;14.45;;;15.40;99.90;;;;;;5052263;28;20049;-86
2023/10/13 03:34:54;;;;;;;37.88;15.18;;;15.50;99.90;;;;;;5052477;28;20048;-87
2023/10/13 03:37:37;;;;;;;35.38;15.73;;;15.60;99.90;;;;;;5052342;28;20484;-87
2023/10/13 03:45:32;;;;;;;39.22;17.48;;;15.60;99.90;;;;;;5052211;28;20480;-87
2023/10/13 03:48:00;;;;;;;41.42;18.42;;;15.60;99.90;;;;;;5051981;28;20044;-87
2023/10/13 03:50:32;;;;;;;46.03;19.92;;;15.50;99.90;;;;;;5051993;28;20036;-87
2023/10/13 03:53:00;;;;;;;52.40;21.65;;;15.60;99.90;;;;;;5052059;28;20112;-86
2023/10/13 03:55:29;;;;;;;58.60;20.75;;;15.50;99.90;;;;;;5053309;28;20110;-86
2023/10/13 03:58:00;;;;;;;57.97;22.33;;;15.70;99.90;;;;;;5052019;28;20370;-85
2023/10/13 04:00:27;;;;;;;51.97;21.67;;;15.70;99.90;;;;;;5052457;28;20041;-85
2023/10/13 04:05:39;;;;;;;48.83;22.45;;;15.60;99.90;;;;;;5052105;28;20076;-85
2023/10/13 04:22:14;;;;;;;50.92;20.42;;;15.70;99.90;;;;;;5051724;28;20129;-84
2023/10/13 04:32:15;;;;;;;40.38;18.73;;;15.80;99.90;;;;;;5055663;28;20052;-86
2023/10/13 04:34:45;;;;;;;38.33;18.67;;;15.80;99.90;;;;;;5055437;28;20036;-86
2023/10/13 04:37:29;;;;;;;39.55;18.67;;;15.70;99.90;;;;;;5055466;28;20053;-88
2023/10/13 04:40:09;;;;;;;36.95;16.98;;;15.70;99.90;;;;;;5056441;28;20134;-86
2023/10/13 04:42:49;;;;;;;32.70;16.33;;;15.70;99.90;;;;;;5055542;28;20072;-85
2023/10/13 04:45:54;;;;;;;30.88;15.27;;;15.70;99.90;;;;;;5055196;28;20072;-85
2023/10/13 04:48:27;;;;;;;29.63;14.90;;;15.80;99.90;;;;;;5053880;28;20056;-85
2023/10/13 04:51:49;;;;;;;30.83;15.55;;;15.80;99.90;;;;;;5055027;28;20053;-86
2023/10/13 04:54:04;;;;;;;27.38;14.65;;;15.70;99.90;;;;;;5055463;28;20060;-85
2023/10/13 05:05:11;;;;;;;24.95;12.80;;;15.90;99.90;;;;;;5054855;28;20481;-82
2023/10/13 06:29:53;;;;;;;8.63;4.80;;;15.60;99.90;;;;;;5052200;28;20056;-86
2023/10/13 06:32:19;;;;;;;7.90;4.25;;;15.80;99.90;;;;;;5054433;28;20045;-86
2023/10/13 06:34:45;;;;;;;6.40;3.65;;;15.60;99.90;;;;;;5053298;28;20128;-87
2023/10/13 06:37:30;;;;;;;7.35;3.80;;;15.80;99.90;;;;;;5054468;28;20568;-88
2023/10/13 06:39:59;;;;;;;10.93;4.40;;;15.70;99.90;;;;;;5052973;28;20425;-89
2023/10/13 06:42:28;;;;;;;8.63;3.88;;;15.60;99.90;;;;;;5054277;28;20076;-86
2023/10/13 06:44:55;;;;;;;8.18;4.75;;;15.60;99.90;;;;;;5048081;28;20056;-83
2023/10/13 06:47:21;;;;;;;7.88;4.60;;;15.70;99.90;;;;;;5045101;28;20047;-89
2023/10/13 06:49:51;;;;;;;7.80;4.40;;;15.70;99.90;;;;;;5053641;28;20474;-87
2023/10/13 06:52:19;;;;;;;8.43;4.13;;;15.70;99.90;;;;;;5052281;28;20080;-89
2023/10/13 06:54:46;;;;;;;8.48;4.60;;;15.80;99.90;;;;;;5052477;28;20049;-88
2023/10/13 06:57:14;;;;;;;10.45;4.82;;;15.70;99.90;;;;;;5052349;28;20044;-88
2023/10/13 06:59:43;;;;;;;11.23;4.80;;;15.90;99.90;;;;;;5052216;28;20080;-86
2023/10/13 07:02:21;;;;;;;12.98;4.68;;;15.90;99.90;;;;;;5052315;28;20049;-89
2023/10/13 07:04:47;;;;;;;13.18;4.93;;;15.80;99.90;;;;;;5052405;28;20083;-86
2023/10/13 07:07:15;;;;;;;15.05;5.63;;;15.90;99.90;;;;;;5052241;28;20485;-87
2023/10/13 07:09:55;;;;;;;14.10;5.45;;;15.80;99.90;;;;;;5052387;28;20044;-88
2023/10/13 07:12:27;;;;;;;15.75;6.03;;;15.80;99.90;;;;;;5053637;28;20037;-87
2023/10/13 07:15:44;;;;;;;16.98;5.45;;;15.80;99.90;;;;;;5052405;28;20045;-88
2023/10/13 07:17:40;;;;;;;19.23;6.40;;;15.90;99.90;;;;;;5041846;28;20068;-88
2023/10/13 07:23:03;;;;;;;9.57;4.35;;;15.80;99.90;;;;;;5051913;28;20061;-86
2023/10/13 07:25:32;;;;;;;9.70;5.10;;;15.90;99.90;;;;;;5052287;28;20052;-91
2023/10/13 07:28:04;;;;;;;10.95;4.85;;;16.00;99.90;;;;;;5051874;28;20048;-88
2023/10/13 07:30:39;;;;;;;10.33;4.80;;;16.00;99.90;;;;;;5051912;28;20060;-88
2023/10/13 07:33:05;;;;;;;11.52;5.43;;;16.00;99.90;;;;;;5051925;28;20302;-92
2023/10/13 07:35:35;;;;;;;11.77;5.50;;;15.90;99.90;;;;;;5051782;28;20106;-88
2023/10/13 07:38:01;;;;;;;14.05;5.85;;;15.80;99.90;;;;;;5051737;28;20106;-87
2023/10/13 07:43:00;;;;;;;15.25;6.20;;;15.80;99.90;;;;;;5051680;28;20504;-89
2023/10/13 07:45:35;;;;;;;;;;;16.00;99.90;;;;;;5052278;28;20099;-85
2023/10/13 07:48:25;;;;;;;18.27;6.20;;;15.80;99.90;;;;;;5052084;28;20008;-86
2023/10/13 07:51:16;;;;;;;21.77;7.20;;;15.80;99.90;;;;;;5053056;28;20049;-90
2023/10/13 07:53:48;;;;;;;25.67;7.72;;;15.90;99.90;;;;;;5053231;28;20052;-87
2023/10/13 07:56:18;;;;;;;22.67;6.93;;;15.70;99.90;;;;;;5052320;28;20048;-88
2023/10/13 07:59:00;;;;;;;21.85;7.63;;;15.70;99.90;;;;;;5051980;28;20048;-88
2023/10/13 08:01:26;;;;;;;15.52;6.63;;;15.70;99.90;;;;;;5055734;28;20047;-87
2023/10/13 08:04:04;;;;;;;19.95;7.22;;;15.80;99.90;;;;;;5055688;28;20123;-85
2023/10/13 08:06:30;;;;;;;22.60;7.85;;;15.70;99.90;;;;;;5055592;28;20057;-86
2023/10/13 08:09:07;;;;;;;16.15;7.03;;;15.70;99.90;;;;;;5055445;28;20400;-86
2023/10/13 08:11:39;;;;;;;22.52;7.60;;;15.70;99.90;;;;;;5055846;28;20049;-81
2023/10/13 08:14:17;;;;;;;19.90;7.82;;;15.70;99.90;;;;;;5055362;28;20041;-85
2023/10/13 08:19:20;;;;;;;19.27;7.10;;;15.70;99.90;;;;;;5055302;28;20056;-87
2023/10/13 08:21:57;;;;;;;18.70;6.90;;;15.90;99.90;;;;;;5055277;28;20056;-86
2023/10/13 08:24:55;;;;;;;20.30;7.00;;;15.80;99.90;;;;;;5055266;28;20041;-83
2023/10/13 08:48:07;;;;;;;19.35;7.57;;;15.90;99.90;;;;;;5054832;28;20053;-82
2023/10/13 08:50:47;;;;;;;20.90;7.95;;;15.80;99.90;;;;;;5054726;28;20488;-83
2023/10/13 08:54:08;;;;;;;23.88;7.68;;;16.00;99.90;;;;;;5054875;28;20133;-84
2023/10/13 08:56:33;;;;;;;14.80;6.43;;;16.00;99.90;;;;;;5046582;28;20102;-81
2023/10/13 08:59:05;;;;;;;20.15;7.43;;;15.90;99.90;;;;;;5054622;28;20392;-85
2023/10/13 09:09:58;;;;;;;19.67;7.90;;;16.30;99.90;;;;;;5055761;28;20103;-87
2023/10/13 09:17:42;;;;;;;15.90;8.57;;;16.40;99.90;;;;;;5051649;28;20056;-83
2023/10/13 09:23:09;;;;;;;18.33;9.43;;;16.50;99.90;;;;;;5030391;28;20072;-84
2023/10/13 09:25:37;;;;;;;19.38;8.95;;;16.70;99.90;;;;;;5030109;28;20061;-83
2023/10/13 09:28:14;;;;;;;22.08;9.38;;;16.60;99.90;;;;;;5030244;28;20076;-82
2023/10/13 09:30:58;;;;;;;16.13;9.57;;;16.80;99.90;;;;;;5045246;28;20411;-81
2023/10/13 09:33:47;;;;;;;18.58;8.95;;;16.90;99.90;;;;;;5050247;28;20124;-84
2023/10/13 09:36:16;;;;;;;16.25;8.75;;;17.00;99.90;;;;;;5049651;28;20143;-81
2023/10/13 09:38:48;;;;;;;20.35;9.27;;;17.00;99.90;;;;;;5052580;28;20048;-83
2023/10/13 09:41:26;;;;;;;22.10;9.07;;;17.10;99.90;;;;;;5039474;28;20049;-85
2023/10/13 09:43:57;;;;;;;22.27;10.15;;;17.30;99.90;;;;;;5042882;28;20345;-82
2023/10/13 09:46:28;;;;;;;29.05;9.85;;;17.40;99.90;;;;;;5053236;28;20059;-82
2023/10/13 09:49:33;;;;;;;14.25;8.25;;;17.50;99.90;;;;;;5051637;28;20052;-85
2023/10/13 09:52:01;;;;;;;16.35;9.15;;;17.50;99.90;;;;;;5048670;28;20068;-82
2023/10/13 09:54:36;;;;;;;19.85;9.40;;;17.50;99.90;;;;;;5051009;28;20048;-81
2023/10/13 09:57:14;;;;;;;16.95;8.65;;;17.50;99.90;;;;;;5049516;28;20048;-84
2023/10/13 10:00:07;;;;;;;15.70;9.18;;;17.50;99.90;;;;;;5039506;28;20053;-81
2023/10/13 10:02:35;;;;;;;15.38;8.95;;;17.60;99.90;;;;;;5048634;28;20511;-82
2023/10/13 10:07:56;;;;;;;14.77;8.55;;;17.60;99.90;;;;;;5049273;28;20051;-78
2023/10/13 10:10:25;;;;;;;14.65;8.52;;;17.70;99.90;;;;;;5049236;28;20052;-84
2023/10/13 10:13:12;;;;;;;17.75;9.00;;;17.70;99.90;;;;;;5048432;28;20396;-85
2023/10/13 10:15:44;;;;;;;16.20;8.07;;;17.70;99.90;;;;;;5049444;28;20056;-87
2023/10/13 10:18:25;;;;;;;20.80;9.43;;;17.70;99.90;;;;;;5049119;28;20128;-83
2023/10/13 10:20:52;;;;;;;17.15;7.63;;;17.80;99.90;;;;;;5050999;28;20384;-81
2023/10/13 10:23:30;;;;;;;18.75;7.43;;;17.70;99.90;;;;;;5173302;22;20057;-82
2023/10/13 10:26:08;;;;;;;20.98;7.72;;;17.80;99.90;;;;;;5032838;28;20128;-84
2023/10/13 10:28:39;;;;;;;17.45;7.43;;;17.90;99.90;;;;;;5032931;28;20140;-83
2023/10/13 10:31:17;;;;;;;22.40;7.90;;;17.90;99.90;;;;;;5033069;28;20049;-83
2023/10/13 10:33:43;;;;;;;17.15;7.78;;;18.10;99.90;;;;;;5033773;28;20072;-83
2023/10/13 10:36:14;;;;;;;16.15;7.53;;;18.20;99.90;;;;;;5034178;28;20067;-83
2023/10/13 10:38:53;;;;;;;19.65;7.47;;;18.20;99.90;;;;;;5032825;28;20049;-85
2023/10/13 10:41:30;;;;;;;21.05;8.40;;;18.30;99.90;;;;;;5032767;28;20045;-83
2023/10/13 10:43:57;;;;;;;17.05;6.90;;;18.40;99.90;;;;;;5032944;28;20059;-81
2023/10/13 10:46:28;;;;;;;20.10;7.25;;;18.60;99.90;;;;;;5032926;28;20046;-85
2023/10/13 10:49:01;;;;;;;17.02;7.05;;;18.60;99.90;;;;;;5033036;28;20041;-84
2023/10/13 10:51:31;;;;;;;17.48;7.22;;;18.70;99.90;;;;;;5034147;28;20095;-84
2023/10/13 10:54:11;;;;;;;17.85;7.55;;;18.70;99.90;;;;;;5034132;28;20046;-82
2023/10/13 10:56:37;;;;;;;19.80;7.38;;;18.60;99.90;;;;;;5032260;28;20437;-85
2023/10/13 10:59:04;;;;;;;20.48;7.40;;;18.60;99.90;;;;;;5032396;28;20136;-84
2023/10/13 11:02:15;;;;;;;18.92;6.82;;;18.70;99.90;;;;;;5034204;28;20041;-84
2023/10/13 11:06:55;;;;;;;16.38;7.00;;;18.70;99.90;;;;;;5033692;28;20136;-84
2023/10/13 11:09:32;;;;;;;20.17;6.78;;;18.70;99.90;;;;;;5032397;28;20044;-86
2023/10/13 11:12:24;;;;;;;23.80;7.18;;;18.60;99.90;;;;;;5032517;28;20056;-81
2023/10/13 11:15:01;;;;;;;21.52;7.43;;;18.60;99.90;;;;;;5032281;28;20401;-83
2023/10/13 11:17:38;;;;;;;19.42;6.47;;;18.60;99.90;;;;;;5032515;28;20064;-84
2023/10/13 11:20:17;;;;;;;18.73;6.53;;;18.60;99.90;;;;;;5032195;28;20386;-82
2023/10/13 11:22:49;;;;;;;18.30;7.10;;;18.70;99.90;;;;;;5032267;28;20049;-83
2023/10/13 11:25:29;;;;;;;20.30;7.40;;;18.80;99.90;;;;;;5032128;28;20053;-84
2023/10/13 11:27:59;;;;;;;21.38;7.75;;;18.80;99.90;;;;;;5032364;28;20045;-84
2023/10/13 11:33:05;;;;;;;19.95;7.03;;;18.70;99.90;;;;;;5032254;28;20159;-83
2023/10/13 11:38:25;;;;;;;21.40;7.93;;;18.70;99.90;;;;;;5032130;28;20064;-85
2023/10/13 11:48:38;;;;;;;22.10;7.20;;;18.80;99.90;;;;;;5033445;28;20156;-81
2023/10/13 11:51:08;;;;;;;13.35;5.95;;;18.80;99.90;;;;;;5039604;28;20120;-84
2023/10/13 11:53:37;;;;;;;20.27;7.50;;;18.80;99.90;;;;;;5048438;28;20053;-82
2023/10/13 11:56:08;;;;;;;19.90;7.03;;;18.70;99.90;;;;;;5051948;28;20488;-83
2023/10/13 11:58:35;;;;;;;15.23;6.78;;;18.70;99.90;;;;;;5032452;28;20045;-81
2023/10/13 12:04:32;;;;;;;19.27;7.43;;;18.50;99.90;;;;;;5031955;28;20061;-84
2023/10/13 12:12:25;;;;;;;16.90;7.68;;;18.10;99.90;;;;;;5033144;28;20073;-81
2023/10/13 12:14:57;;;;;;;18.95;8.25;;;18.00;99.90;;;;;;5031851;28;20136;-85
2023/10/13 12:17:31;;;;;;;17.92;8.10;;;17.90;99.90;;;;;;5031451;28;20409;-87
2023/10/13 12:20:00;;;;;;;16.40;7.50;;;17.90;99.90;;;;;;5031550;28;20045;-85
2023/10/13 12:22:35;;;;;;;17.80;8.18;;;17.80;99.90;;;;;;5031513;28;20068;-85
2023/10/13 12:25:05;;;;;;;20.95;7.70;;;17.70;99.90;;;;;;5031612;28;20061;-84
2023/10/13 12:27:45;;;;;;;19.48;8.07;;;17.60;99.90;;;;;;5032001;28;20469;-86
2023/10/13 12:30:22;;;;;;;19.00;8.70;;;17.60;99.90;;;;;;5031617;28;20124;-83
2023/10/13 12:32:58;;;;;;;25.52;8.68;;;17.60;99.90;;;;;;5031757;28;20037;-81
2023/10/13 12:35:30;;;;;;;21.67;8.93;;;17.50;99.90;;;;;;5031598;28;20049;-80
2023/10/13 12:38:04;;;;;;;22.87;8.77;;;17.50;99.90;;;;;;5031680;28;20482;-83
2023/10/13 12:48:58;;;;;;;30.20;10.80;;;17.50;99.90;;;;;;5035351;28;20056;-81
2023/10/13 12:54:13;;;;;;;23.83;10.02;;;17.40;99.90;;;;;;5034859;28;20418;-84
2023/10/13 12:56:41;;;;;;;22.63;10.10;;;17.30;99.90;;;;;;5036218;28;20111;-85
2023/10/13 12:59:09;;;;;;;25.67;10.25;;;17.30;99.90;;;;;;5034913;28;20046;-82
2023/10/13 13:01:35;;;;;;;30.05;11.43;;;17.30;99.90;;;;;;5034742;28;20061;-83
2023/10/13 13:04:03;;;;;;;28.42;10.85;;;17.30;99.90;;;;;;5034951;28;20060;-82
2023/10/13 13:06:30;;;;;;;25.48;11.27;;;17.20;99.90;;;;;;5035853;28;20476;-85
2023/10/13 13:09:00;;;;;;;24.00;10.65;;;17.20;99.90;;;;;;5034832;28;20128;-83
2023/10/13 13:11:28;;;;;;;22.20;11.40;;;17.20;99.90;;;;;;5034872;28;20060;-82
2023/10/13 13:13:54;;;;;;;22.50;10.82;;;17.30;99.90;;;;;;5034779;28;20049;-83
2023/10/13 13:16:23;;;;;;;22.60;11.02;;;17.30;99.90;;;;;;5034434;28;20086;-81
2023/10/13 13:18:55;;;;;;;24.08;11.77;;;17.20;99.90;;;;;;5035943;28;20045;-80
2023/10/13 13:21:24;;;;;;;24.77;11.53;;;17.20;99.90;;;;;;5034452;28;20077;-85
2023/10/13 13:23:56;;;;;;;28.33;11.95;;;17.20;99.90;;;;;;5034131;28;20050;-83
2023/10/13 13:26:25;;;;;;;25.88;11.38;;;17.30;99.90;;;;;;5034770;28;20049;-83
2023/10/13 13:28:51;;;;;;;25.02;10.35;;;17.20;99.90;;;;;;5034122;28;20045;-83
2023/10/13 13:31:17;;;;;;;27.05;11.52;;;17.20;99.90;;;;;;5033880;28;20099;-83
2023/10/13 13:33:43;;;;;;;26.42;11.48;;;17.10;99.90;;;;;;5034113;28;20094;-84
2023/10/13 13:36:15;;;;;;;24.70;11.02;;;17.10;99.90;;;;;;5034428;28;20045;-85
2023/10/13 13:38:45;;;;;;;19.95;11.02;;;17.30;99.90;;;;;;5034264;28;20405;-83
2023/10/13 13:41:18;;;;;;;26.33;10.88;;;17.10;99.90;;;;;;5033984;28;20107;-83
2023/10/13 13:46:17;;;;;;;26.33;11.63;;;17.20;99.90;;;;;;5035533;28;20059;-86
2023/10/13 13:48:42;;;;;;;29.38;12.40;;;17.10;99.90;;;;;;5035470;28;20045;-86
2023/10/13 13:51:14;;;;;;;27.02;12.73;;;17.10;99.90;;;;;;5035114;28;20056;-85
2023/10/13 13:53:50;;;;;;;26.08;11.40;;;17.20;99.90;;;;;;5034984;28;20494;-82
2023/10/13 13:56:16;;;;;;;28.00;11.75;;;17.20;99.90;;;;;;5033358;28;20050;-85
2023/10/13 13:58:43;;;;;;;22.40;10.82;;;17.10;99.90;;;;;;5033063;28;20046;-83
2023/10/13 14:01:12;;;;;;;27.55;12.32;;;17.20;99.90;;;;;;5033681;28;20405;-85
2023/10/13 14:03:47;;;;;;;30.98;11.15;;;17.30;99.90;;;;;;5033881;28;20045;-85
2023/10/13 14:06:23;;;;;;;27.05;10.15;;;17.30;99.90;;;;;;5034852;28;20050;-85
2023/10/13 14:08:50;;;;;;;30.15;11.43;;;17.30;99.90;;;;;;5034998;28;20037;-85
2023/10/13 14:14:04;;;;;;;30.60;12.00;;;17.20;99.90;;;;;;5033295;28;20077;-87
2023/10/13 14:16:33;;;;;;;40.65;12.40;;;17.40;99.90;;;;;;5034676;28;20056;-85
2023/10/13 14:19:02;;;;;;;30.77;10.75;;;17.40;99.90;;;;;;5033562;28;20049;-86
2023/10/13 14:21:28;;;;;;;27.85;11.65;;;17.40;99.90;;;;;;5034343;28;20086;-84
2023/10/13 14:23:53;;;;;;;33.95;11.80;;;17.50;99.90;;;;;;5034156;28;20057;-84
2023/10/13 14:26:25;;;;;;;30.23;12.45;;;17.40;99.90;;;;;;5034300;28;20481;-86
2023/10/13 14:29:00;;;;;;;24.25;11.20;;;17.50;99.90;;;;;;5033342;28;20041;-84
2023/10/13 14:31:26;;;;;;;33.95;11.20;;;17.60;99.90;;;;;;5032937;28;20049;-87
2023/10/13 14:33:53;;;;;;;33.10;11.57;;;17.60;99.90;;;;;;5033103;28;20430;-85
2023/10/13 14:36:19;;;;;;;31.10;11.30;;;17.60;99.90;;;;;;5033111;28;20057;-85
2023/10/13 14:38:51;;;;;;;33.15;12.73;;;17.60;99.90;;;;;;5033071;28;20080;-87
2023/10/13 14:41:18;;;;;;;32.08;11.05;;;17.60;99.90;;;;;;5032890;28;20056;-85
2023/10/13 14:43:47;;;;;;;27.15;10.82;;;17.80;99.90;;;;;;5032976;28;20159;-87
2023/10/13 14:46:23;;;;;;;36.67;11.20;;;17.70;99.90;;;;;;5033013;28;20489;-84
2023/10/13 14:48:52;;;;;;;32.97;11.07;;;17.70;99.90;;;;;;5032720;28;20073;-84
2023/10/13 14:51:18;;;;;;;32.08;11.60;;;17.70;99.90;;;;;;5032833;28;20378;-87
2023/10/13 14:53:48;;;;;;;30.90;10.57;;;17.70;99.90;;;;;;5032683;28;20432;-90
2023/10/13 14:56:15;;;;;;;28.92;9.82;;;17.80;99.90;;;;;;5032846;28;20073;-86
2023/10/13 14:58:44;;;;;;;32.40;10.65;;;17.80;99.90;;;;;;5033720;28;20049;-85
2023/10/13 15:01:22;;;;;;;28.55;10.30;;;17.80;99.90;;;;;;5032618;28;20049;-85
2023/10/13 15:03:50;;;;;;;32.88;10.85;;;17.90;99.90;;;;;;5032673;28;20053;-85
2023/10/13 15:06:21;;;;;;;31.63;10.30;;;17.80;99.90;;;;;;5033625;28;20055;-85
2023/10/13 15:08:47;;;;;;;32.50;10.32;;;18.00;99.90;;;;;;5033122;28;20103;-85
2023/10/13 15:11:18;;;;;;;29.40;10.38;;;17.90;99.90;;;;;;5032286;28;20444;-84
2023/10/13 15:13:44;;;;;;;38.97;11.02;;;17.90;99.90;;;;;;5032279;28;20073;-84
2023/10/13 15:16:21;;;;;;;26.40;10.88;;;17.90;99.90;;;;;;5032588;28;20489;-84
2023/10/13 15:18:51;;;;;;;24.25;10.50;;;18.00;99.90;;;;;;5032193;28;20489;-85
2023/10/13 15:21:26;;;;;;;31.77;10.48;;;17.90;99.90;;;;;;5032394;28;20559;-84
2023/10/13 15:23:53;;;;;;;31.25;11.43;;;17.90;99.90;;;;;;5032107;28;20493;-85
2023/10/13 15:26:23;;;;;;;30.58;10.55;;;17.90;99.90;;;;;;5032428;28;20123;-84
2023/10/13 15:28:49;;;;;;;28.88;11.27;;;17.90;99.90;;;;;;5032312;28;20081;-85
2023/10/13 15:34:06;;;;;;;31.25;10.23;;;18.00;99.90;;;;;;5032344;28;20396;-85
2023/10/13 15:36:35;;;;;;;27.50;10.07;;;17.90;99.90;;;;;;5032338;28;20059;-86
2023/10/13 15:39:01;;;;;;;35.17;10.63;;;18.00;99.90;;;;;;5031728;28;20128;-86
2023/10/13 15:41:28;;;;;;;32.40;10.95;;;18.00;99.90;;;;;;5031986;28;20076;-87
2023/10/13 15:43:55;;;;;;;36.15;10.43;;;18.00;99.90;;;;;;5033347;28;20056;-90
2023/10/13 15:46:22;;;;;;;37.35;11.52;;;18.00;99.90;;;;;;5033151;28;20044;-92
2023/10/13 15:48:50;;;;;;;31.70;10.80;;;17.90;99.90;;;;;;5033422;28;20136;-86
2023/10/13 15:51:16;;;;;;;32.38;10.55;;;18.00;99.90;;;;;;5032032;28;20048;-88
2023/10/13 15:53:49;;;;;;;36.38;11.02;;;17.90;99.90;;;;;;5031967;28;20127;-88
2023/10/13 15:56:14;;;;;;;;;;;17.90;99.90;;;;;;5032453;28;20049;-84
2023/10/13 15:58:50;;;;;;;35.20;10.75;;;17.90;99.90;;;;;;5031944;28;19921;-88
2023/10/13 16:01:16;;;;;;;39.58;11.18;;;17.90;99.90;;;;;;5033378;28;20103;-90
2023/10/13 16:03:43;;;;;;;34.33;9.88;;;17.90;99.90;;;;;;5032198;28;20047;-86
2023/10/13 16:06:13;;;;;;;31.92;11.55;;;17.90;99.90;;;;;;5032186;28;20046;-85
2023/10/13 16:08:42;;;;;;;31.38;11.00;;;17.90;99.90;;;;;;5031876;28;20057;-88
2023/10/13 16:11:13;;;;;;;27.80;10.35;;;17.90;99.90;;;;;;5031801;28;20073;-86
2023/10/13 16:13:39;;;;;;;30.10;9.55;;;17.90;99.90;;;;;;5032067;28;20053;-88
2023/10/13 16:16:05;;;;;;;36.75;10.38;;;17.90;99.90;;;;;;5032084;28;20409;-90
2023/10/13 16:18:32;;;;;;;33.63;9.77;;;17.90;99.90;;;;;;5032109;28;20052;-89
2023/10/13 16:21:04;;;;;;;35.90;9.15;;;17.90;99.90;;;;;;5033684;28;20512;-92
2023/10/13 16:23:34;;;;;;;30.17;9.43;;;18.00;99.90;;;;;;5035712;28;20092;-89
2023/10/13 16:26:02;;;;;;;35.67;11.38;;;17.90;99.90;;;;;;5035645;28;20296;-92
2023/10/13 16:28:27;;;;;;;32.22;10.18;;;17.90;99.90;;;;;;5035290;28;20045;-90
2023/10/13 16:30:53;;;;;;;30.27;8.88;;;17.90;99.90;;;;;;5035525;28;20087;-88
2023/10/13 16:33:22;;;;;;;33.47;9.30;;;17.90;99.90;;;;;;5035460;28;20045;-88
2023/10/13 16:35:49;;;;;;;35.42;10.50;;;17.80;99.90;;;;;;5036575;28;20045;-90
2023/10/13 16:38:16;;;;;;;31.33;9.82;;;17.80;99.90;;;;;;5036895;28;20041;-87